Ames, South Dakota
Current Conditions -  °F | °C
As of 1:53 AM on Sunday 23 Nov 2014 (Local Time) from KPIR Reporting Station
Broken Clouds Broken Clouds  
Wind Chill: 31°   Ceiling: 5500
Heat Index: 39°   Visibility: 10mi
Dew Point: 36°   Wind: 15mph
Humidity: 89%   Direction: 310°NW
Pressure: 29.45"   Gusts: NA
Location:  44.3693°N, 100.04°W
Report Text: KPIR 230753Z AUTO 31013KT 10SM BKN055 04/02 A2945 RMK AO2 RAB09E49 SLP979 P0000 T00390022
Loading
Personal Weather Stations






























Interactive Weather Map New forecast layout! Learn more

10-Day Weather Forecast

Advertisements
Track Severe Weather on mobile